Terminal Aerodrome Forecast
Issued by NWS

Home | Current Version | Previous Version | Text Only | Print | Product List | Glossary On
Versions: 1 2 3 4 5 6 7 8 9 10 11 12 13 14 15 16 17 18 19 20 21 22 23 24 25 26 27 28
000
FTUS42 KCAE 020200 AAA
TAFOGB
TAF AMD
KOGB 020232Z 0203/0224 00000KT P6SM SCT250
     FM020800 00000KT 6SM BR SKC
      TEMPO 0211/0213 3SM BR
     FM021300 20005KT P6SM SCT050=

USA.gov is the U.S. government's official web portal to all federal, state and local government web resources and services.